Time;durP1;ratioP1;P1;durP2;ratioP2;P2;SDS_P1;SDS_P2;PMS_P1;PMS_P2;Temp;Humidity;BMP_temperature;BMP_pressure;BME280_temperature;BME280_humidity;BME280_pressure;Samples;Min_cycle;Max_cycle;Signal;HPM_P1;HPM_P2
2021/09/24 00:00:28;;;;;;;6.90;2.67;;;15.20;99.90;;;;;;5051277;28;20238;-75
2021/09/24 00:02:53;;;;;;;10.00;3.00;;;15.20;99.90;;;;;;5050515;28;20181;-75
2021/09/24 00:05:19;;;;;;;8.60;2.70;;;15.10;99.90;;;;;;5032900;28;20214;-75
2021/09/24 00:07:45;;;;;;;6.73;2.70;;;15.10;99.90;;;;;;5032923;28;20194;-74
2021/09/24 00:10:10;;;;;;;8.87;3.27;;;15.10;99.90;;;;;;5032945;28;20234;-75
2021/09/24 00:12:36;;;;;;;5.70;2.70;;;15.10;99.90;;;;;;5034159;28;20187;-75
2021/09/24 00:15:03;;;;;;;9.37;3.00;;;15.10;99.90;;;;;;5033551;28;20662;-75
2021/09/24 00:17:29;;;;;;;6.60;3.00;;;15.10;99.90;;;;;;5050431;28;20182;-75
2021/09/24 00:19:54;;;;;;;5.73;2.73;;;15.10;99.90;;;;;;5035081;28;20241;-75
2021/09/24 00:22:20;;;;;;;6.87;2.80;;;15.10;99.90;;;;;;5050269;28;20242;-75
2021/09/24 00:24:45;;;;;;;7.90;2.80;;;15.10;99.90;;;;;;5050361;28;20236;-75
2021/09/24 00:27:11;;;;;;;6.50;2.77;;;15.10;99.90;;;;;;5034133;28;20187;-75
2021/09/24 00:29:36;;;;;;;6.13;2.73;;;15.00;99.90;;;;;;5050848;28;20214;-75
2021/09/24 00:32:03;;;;;;;7.57;2.73;;;15.00;99.90;;;;;;5031937;28;20182;-75
2021/09/24 00:34:28;;;;;;;11.47;3.30;;;15.00;99.90;;;;;;5034498;28;20217;-75
2021/09/24 00:36:54;;;;;;;11.67;2.97;;;15.00;99.90;;;;;;5051508;28;20187;-75
2021/09/24 00:39:19;;;;;;;9.87;3.20;;;15.00;99.90;;;;;;5018261;28;20198;-75
2021/09/24 00:41:45;;;;;;;7.57;2.77;;;15.00;99.90;;;;;;5034898;28;20209;-75
2021/09/24 00:44:10;;;;;;;8.87;3.10;;;15.10;99.90;;;;;;5034388;28;20189;-75
2021/09/24 00:46:36;;;;;;;8.07;3.10;;;15.00;99.90;;;;;;5035987;28;20179;-75
2021/09/24 00:49:01;;;;;;;8.60;3.17;;;15.00;99.90;;;;;;5034687;28;20286;-75
2021/09/24 00:51:27;;;;;;;9.90;2.87;;;15.00;99.90;;;;;;5034745;28;20179;-75
2021/09/24 00:53:53;;;;;;;8.07;2.90;;;15.00;99.90;;;;;;5034415;28;20209;-75
2021/09/24 00:56:18;;;;;;;10.50;3.23;;;15.00;99.90;;;;;;5034430;28;20258;-75
2021/09/24 00:58:44;;;;;;;9.67;2.97;;;15.00;99.90;;;;;;5034667;28;20186;-75
2021/09/24 01:01:09;;;;;;;8.27;2.87;;;15.00;99.90;;;;;;5051278;28;20179;-75
2021/09/24 01:03:35;;;;;;;7.30;2.83;;;15.00;99.90;;;;;;5051293;28;20269;-75
2021/09/24 01:06:01;;;;;;;9.90;2.97;;;15.00;99.90;;;;;;5034535;28;20209;-75
2021/09/24 01:08:26;;;;;;;9.03;3.00;;;15.00;99.90;;;;;;5035330;28;20171;-75
2021/09/24 01:10:52;;;;;;;8.07;2.90;;;15.00;99.90;;;;;;5034317;28;20224;-75
2021/09/24 01:13:17;;;;;;;9.40;2.97;;;15.00;99.90;;;;;;5034185;28;20233;-75
2021/09/24 01:15:43;;;;;;;5.70;2.70;;;15.00;99.90;;;;;;5050945;28;20190;-75
2021/09/24 01:18:08;;;;;;;6.23;2.83;;;15.00;99.90;;;;;;5034199;28;20179;-75
2021/09/24 01:20:34;;;;;;;6.87;2.87;;;15.00;99.90;;;;;;5050809;28;20666;-75
2021/09/24 01:22:59;;;;;;;5.83;2.80;;;15.00;99.90;;;;;;5033893;28;20258;-75
2021/09/24 01:25:25;;;;;;;10.67;3.37;;;15.00;99.90;;;;;;5017410;28;20175;-75
2021/09/24 01:27:51;;;;;;;10.97;3.00;;;15.00;99.90;;;;;;5034169;28;20175;-75
2021/09/24 01:30:17;;;;;;;7.50;3.17;;;15.10;99.90;;;;;;5033545;28;20218;-75
2021/09/24 01:32:44;;;;;;;5.50;3.00;;;15.20;99.90;;;;;;5034959;28;20203;-75
2021/09/24 01:35:09;;;;;;;9.33;3.03;;;15.10;99.90;;;;;;5033737;28;20229;-75
2021/09/24 01:37:35;;;;;;;9.90;3.33;;;15.20;99.90;;;;;;5050373;28;20197;-75
2021/09/24 01:40:01;;;;;;;7.90;2.97;;;15.10;99.90;;;;;;5050313;28;20195;-75
2021/09/24 01:42:26;;;;;;;9.47;3.63;;;15.20;99.90;;;;;;5033520;28;20258;-75
2021/09/24 01:44:52;;;;;;;9.30;3.63;;;15.10;99.90;;;;;;5033590;28;20229;-75
2021/09/24 01:47:18;;;;;;;9.03;3.67;;;15.20;99.90;;;;;;5050184;28;20712;-75
2021/09/24 01:49:43;;;;;;;8.03;3.43;;;15.10;99.90;;;;;;5050120;28;20674;-75
2021/09/24 01:52:09;;;;;;;8.70;2.90;;;15.10;99.90;;;;;;5034528;28;20186;-75
2021/09/24 01:54:34;;;;;;;11.20;4.00;;;15.00;99.90;;;;;;5049891;28;20218;-76
2021/09/24 01:57:00;;;;;;;6.33;3.10;;;15.10;99.90;;;;;;5034593;28;20171;-75
2021/09/24 01:59:25;;;;;;;8.83;3.73;;;15.10;99.90;;;;;;5033289;28;20195;-75
2021/09/24 02:01:51;;;;;;;7.20;3.30;;;15.10;99.90;;;;;;5049421;28;20182;-75
2021/09/24 02:04:17;;;;;;;9.80;3.77;;;15.10;99.90;;;;;;5033123;28;20179;-75
2021/09/24 02:06:43;;;;;;;14.70;3.50;;;15.00;99.90;;;;;;5049904;28;20227;-75
2021/09/24 02:09:09;;;;;;;9.07;3.40;;;15.00;99.90;;;;;;5033036;28;20199;-76
2021/09/24 02:11:34;;;;;;;8.17;3.43;;;15.00;99.90;;;;;;5049694;28;20185;-75
2021/09/24 02:14:00;;;;;;;8.17;3.60;;;15.00;99.90;;;;;;5032848;28;20198;-75
2021/09/24 02:16:26;;;;;;;8.97;3.67;;;15.00;99.90;;;;;;5033157;28;20207;-75
2021/09/24 02:18:52;;;;;;;8.70;3.47;;;15.00;99.90;;;;;;5033032;28;20194;-75
2021/09/24 02:21:17;;;;;;;9.00;3.50;;;15.00;99.90;;;;;;5032831;28;20609;-75
2021/09/24 02:23:43;;;;;;;6.63;3.63;;;15.00;99.90;;;;;;5032775;28;20187;-75
2021/09/24 02:26:08;;;;;;;10.57;3.80;;;15.00;99.90;;;;;;5033454;28;20638;-75
2021/09/24 02:28:34;;;;;;;11.87;3.53;;;15.00;99.90;;;;;;5016193;28;20189;-75
2021/09/24 02:31:00;;;;;;;7.80;3.90;;;15.00;99.90;;;;;;5016890;28;20186;-75
2021/09/24 02:33:25;;;;;;;7.30;3.47;;;15.00;99.90;;;;;;5032465;28;20553;-75
2021/09/24 02:35:51;;;;;;;9.43;3.90;;;15.00;99.90;;;;;;5032813;28;20544;-75
2021/09/24 02:38:16;;;;;;;13.07;4.13;;;15.00;99.90;;;;;;5049198;28;20179;-75
2021/09/24 02:40:42;;;;;;;12.50;4.33;;;15.10;99.90;;;;;;5016132;28;20546;-75
2021/09/24 02:43:08;;;;;;;10.87;3.60;;;15.00;99.90;;;;;;5048966;28;20182;-75
2021/09/24 02:45:33;;;;;;;7.00;3.97;;;15.00;99.90;;;;;;5032578;28;20190;-75
2021/09/24 02:47:59;;;;;;;11.30;4.40;;;15.10;99.90;;;;;;5049230;28;20191;-75
2021/09/24 02:50:24;;;;;;;10.87;4.50;;;15.10;99.90;;;;;;5032331;28;20230;-75
2021/09/24 02:52:50;;;;;;;9.27;4.40;;;15.00;99.90;;;;;;5032337;28;20537;-75
2021/09/24 02:55:15;;;;;;;11.77;4.50;;;15.00;99.90;;;;;;5032258;28;20242;-75
2021/09/24 02:57:41;;;;;;;10.73;4.43;;;15.00;99.90;;;;;;5048377;28;20293;-75
2021/09/24 03:00:07;;;;;;;9.87;5.20;;;15.10;99.90;;;;;;5031624;28;20202;-75
2021/09/24 03:02:35;;;;;;;12.97;4.70;;;15.00;99.90;;;;;;5048572;28;20668;-75
2021/09/24 03:05:01;;;;;;;12.67;5.40;;;15.00;99.90;;;;;;5048628;28;20175;-75
2021/09/24 03:07:26;;;;;;;13.60;6.30;;;15.00;99.90;;;;;;5032106;28;20187;-75
2021/09/24 03:09:52;;;;;;;11.17;5.73;;;15.00;99.90;;;;;;5031868;28;20697;-75
2021/09/24 03:12:17;;;;;;;10.87;6.07;;;15.00;99.90;;;;;;5031777;28;20654;-75
2021/09/24 03:14:43;;;;;;;11.83;6.27;;;15.10;99.90;;;;;;5048421;28;20214;-75
2021/09/24 03:17:09;;;;;;;11.53;6.37;;;15.10;99.90;;;;;;5032000;28;20293;-75
2021/09/24 03:19:34;;;;;;;11.73;5.73;;;15.10;99.90;;;;;;5048324;28;20640;-75
2021/09/24 03:22:00;;;;;;;9.73;6.33;;;15.00;99.90;;;;;;5048245;28;20549;-75
2021/09/24 03:24:25;;;;;;;10.93;6.63;;;15.00;99.90;;;;;;5048368;28;20179;-75
2021/09/24 03:26:51;;;;;;;12.00;6.20;;;15.00;99.90;;;;;;5031933;28;20213;-75
2021/09/24 03:29:16;;;;;;;13.03;7.10;;;15.10;99.90;;;;;;5048325;28;20225;-75
2021/09/24 03:31:42;;;;;;;15.23;6.97;;;15.00;99.90;;;;;;5032929;28;20688;-75
2021/09/24 03:34:08;;;;;;;13.83;8.10;;;15.00;99.90;;;;;;5031616;28;20688;-75
2021/09/24 03:36:34;;;;;;;14.70;7.60;;;15.00;99.90;;;;;;5048101;28;20179;-75
2021/09/24 03:39:00;;;;;;;13.83;7.83;;;15.10;99.90;;;;;;5047938;28;20214;-75
2021/09/24 03:41:25;;;;;;;13.37;7.93;;;15.00;99.90;;;;;;5015185;28;20236;-75
2021/09/24 03:43:51;;;;;;;16.73;8.80;;;15.00;99.90;;;;;;5048073;28;20689;-75
2021/09/24 03:46:16;;;;;;;14.17;8.40;;;15.10;99.90;;;;;;5014705;28;20620;-75
2021/09/24 03:48:42;;;;;;;14.07;8.57;;;15.10;99.90;;;;;;5011535;28;20184;-75
2021/09/24 03:51:08;;;;;;;15.83;8.80;;;15.00;99.90;;;;;;5011465;28;20179;-75
2021/09/24 03:53:33;;;;;;;13.60;8.27;;;15.00;99.90;;;;;;5011358;28;20195;-75
2021/09/24 03:55:59;;;;;;;11.60;9.00;;;15.00;99.90;;;;;;5011450;28;20180;-75
2021/09/24 03:58:24;;;;;;;15.43;9.20;;;15.00;99.90;;;;;;4995167;28;20175;-75
2021/09/24 04:00:50;;;;;;;14.97;9.50;;;15.10;99.90;;;;;;5017854;28;20220;-75
2021/09/24 04:03:16;;;;;;;18.80;9.53;;;15.20;99.90;;;;;;5030913;28;20530;-75
2021/09/24 04:05:42;;;;;;;16.90;9.97;;;15.20;99.90;;;;;;5031120;28;20179;-75
2021/09/24 04:08:07;;;;;;;15.40;9.63;;;15.20;99.90;;;;;;5030541;28;20190;-75
2021/09/24 04:10:33;;;;;;;15.53;9.63;;;15.10;99.90;;;;;;5031111;28;20195;-77
2021/09/24 04:12:58;;;;;;;19.37;10.07;;;15.20;99.90;;;;;;5014411;28;20649;-75
2021/09/24 04:15:24;;;;;;;16.93;10.47;;;15.20;99.90;;;;;;5034668;28;20217;-78
2021/09/24 04:17:49;;;;;;;17.20;10.50;;;15.20;99.90;;;;;;5033687;28;20186;-78
2021/09/24 04:20:15;;;;;;;18.33;10.60;;;15.20;99.90;;;;;;5032614;28;20252;-78
2021/09/24 04:22:41;;;;;;;18.40;10.60;;;15.20;99.90;;;;;;5031020;28;20183;-76
2021/09/24 04:25:07;;;;;;;15.80;10.47;;;15.20;99.90;;;;;;5032257;28;20193;-77
2021/09/24 04:27:33;;;;;;;14.37;10.00;;;15.20;99.90;;;;;;5032639;28;20647;-78
2021/09/24 04:29:58;;;;;;;17.77;10.70;;;15.10;99.90;;;;;;5032055;28;20222;-78
2021/09/24 04:32:24;;;;;;;17.87;10.87;;;15.10;99.90;;;;;;5031917;28;20178;-77
2021/09/24 04:34:49;;;;;;;15.83;10.33;;;15.10;99.90;;;;;;5032823;28;20323;-77
2021/09/24 04:37:15;;;;;;;19.07;10.50;;;15.10;99.90;;;;;;5031872;28;20179;-77
2021/09/24 04:39:40;;;;;;;19.13;10.73;;;15.10;99.90;;;;;;5031652;28;20247;-76
2021/09/24 04:42:06;;;;;;;17.17;10.60;;;15.10;99.90;;;;;;5032841;28;20174;-76
2021/09/24 04:44:32;;;;;;;19.50;11.33;;;15.10;99.90;;;;;;5031879;28;20261;-75
2021/09/24 04:46:57;;;;;;;18.00;10.60;;;15.10;99.90;;;;;;5031729;28;20230;-76
2021/09/24 04:49:23;;;;;;;17.37;10.87;;;15.10;99.90;;;;;;5032842;28;20698;-76
2021/09/24 04:51:48;;;;;;;17.87;10.47;;;15.10;99.90;;;;;;5031685;28;20187;-76
2021/09/24 04:54:14;;;;;;;18.70;10.77;;;15.20;99.90;;;;;;5014417;28;20298;-76
2021/09/24 04:56:40;;;;;;;17.07;10.13;;;15.10;99.90;;;;;;5030350;28;20193;-76
2021/09/24 04:59:05;;;;;;;16.90;10.30;;;15.20;99.90;;;;;;5012837;28;20237;-76
2021/09/24 05:01:31;;;;;;;16.30;10.80;;;15.20;99.90;;;;;;5025281;28;20524;-77
2021/09/24 05:03:56;;;;;;;14.60;10.70;;;15.10;99.90;;;;;;5030567;28;20179;-76
2021/09/24 05:06:22;;;;;;;19.50;10.20;;;15.10;99.90;;;;;;5030919;28;20179;-76
2021/09/24 05:08:47;;;;;;;15.80;9.60;;;15.10;99.90;;;;;;5025627;28;20221;-77
2021/09/24 05:11:13;;;;;;;14.63;9.93;;;15.10;99.90;;;;;;5033662;28;20262;-77
2021/09/24 05:13:39;;;;;;;16.60;11.27;;;15.10;99.90;;;;;;5031940;28;20179;-76
2021/09/24 05:16:04;;;;;;;17.17;10.23;;;15.20;99.90;;;;;;5032264;28;20183;-76
2021/09/24 05:18:30;;;;;;;16.77;10.77;;;15.20;99.90;;;;;;5032610;28;20179;-78
2021/09/24 05:20:55;;;;;;;16.97;10.30;;;15.20;99.90;;;;;;5036255;28;20171;-77
2021/09/24 05:23:21;;;;;;;18.37;11.50;;;15.20;99.90;;;;;;5018261;28;20205;-77
2021/09/24 05:25:46;;;;;;;16.13;11.60;;;15.20;99.90;;;;;;5033842;28;20257;-76
2021/09/24 05:28:12;;;;;;;18.07;12.47;;;15.20;99.90;;;;;;5001607;28;20206;-76
2021/09/24 05:30:38;;;;;;;19.20;11.83;;;15.20;99.90;;;;;;5033324;28;20566;-76
2021/09/24 05:33:03;;;;;;;21.53;13.20;;;15.20;99.90;;;;;;5000403;28;20654;-77
2021/09/24 05:35:29;;;;;;;19.17;13.53;;;15.20;99.90;;;;;;5001210;28;20214;-76
2021/09/24 05:37:54;;;;;;;23.10;14.13;;;15.30;99.90;;;;;;5033636;28;20182;-77
2021/09/24 05:40:20;;;;;;;20.00;13.53;;;15.30;99.90;;;;;;5017168;28;20233;-77
2021/09/24 05:42:46;;;;;;;23.57;15.00;;;15.30;99.90;;;;;;5033266;28;20202;-76
2021/09/24 05:45:14;;;;;;;26.20;15.70;;;15.30;99.90;;;;;;5033516;28;20187;-76
2021/09/24 05:47:40;;;;;;;25.30;16.37;;;15.30;99.90;;;;;;5017432;28;20592;-77
2021/09/24 05:50:11;;;;;;;20.83;15.53;;;15.40;99.90;;;;;;5017091;28;20654;-77
2021/09/24 05:52:38;;;;;;;22.70;15.53;;;15.30;99.90;;;;;;5016999;28;20209;-77
2021/09/24 05:55:04;;;;;;;24.27;16.27;;;15.30;99.90;;;;;;5000556;28;20217;-73
2021/09/24 05:57:29;;;;;;;24.33;16.97;;;15.30;99.90;;;;;;5033240;28;20273;-76
2021/09/24 05:59:55;;;;;;;25.43;16.57;;;15.30;99.90;;;;;;5016809;28;20187;-73
2021/09/24 06:02:20;;;;;;;27.57;16.43;;;15.30;99.90;;;;;;5016656;28;20237;-72
2021/09/24 06:04:46;;;;;;;27.90;17.27;;;15.30;99.90;;;;;;5016213;28;20179;-76
2021/09/24 06:07:11;;;;;;;27.17;17.70;;;15.40;99.90;;;;;;5033424;28;20186;-76
2021/09/24 06:09:37;;;;;;;25.13;17.83;;;15.40;99.90;;;;;;5033046;28;20257;-76
2021/09/24 06:12:03;;;;;;;27.50;17.33;;;15.40;99.90;;;;;;5016322;28;20187;-75
2021/09/24 06:14:28;;;;;;;31.97;18.33;;;15.40;99.90;;;;;;5016564;28;20206;-76
2021/09/24 06:16:54;;;;;;;28.53;17.97;;;15.40;99.90;;;;;;5032709;28;20295;-75
2021/09/24 06:19:19;;;;;;;28.30;18.93;;;15.50;99.90;;;;;;5032951;28;20198;-76
2021/09/24 06:21:45;;;;;;;26.10;18.03;;;15.50;99.90;;;;;;5016452;28;20186;-75
2021/09/24 06:24:11;;;;;;;27.50;18.23;;;15.40;99.90;;;;;;5032771;28;20171;-76
2021/09/24 06:26:37;;;;;;;25.73;18.63;;;15.40;99.90;;;;;;5032906;28;20186;-76
2021/09/24 06:29:03;;;;;;;27.50;18.07;;;15.40;99.90;;;;;;5032131;28;20211;-76
2021/09/24 06:31:28;;;;;;;26.00;18.53;;;15.40;99.90;;;;;;5032262;28;20179;-80
2021/09/24 06:33:54;;;;;;;30.00;18.50;;;15.40;99.90;;;;;;5061930;22;20316;-80
2021/09/24 06:36:22;;;;;;;26.93;19.07;;;15.50;99.90;;;;;;5042431;28;20196;-81
2021/09/24 06:38:48;;;;;;;27.30;19.70;;;15.50;99.90;;;;;;5059030;28;20234;-79
2021/09/24 06:41:14;;;;;;;30.07;20.17;;;15.50;99.90;;;;;;5043259;28;20174;-83
2021/09/24 06:43:41;;;;;;;29.20;18.50;;;15.60;99.90;;;;;;5043308;28;20285;-81
2021/09/24 06:46:07;;;;;;;28.20;20.03;;;15.60;99.90;;;;;;5042898;28;20264;-83
2021/09/24 06:48:34;;;;;;;28.80;20.67;;;15.50;99.90;;;;;;5043030;28;20174;-80
2021/09/24 06:50:59;;;;;;;32.83;22.03;;;15.50;99.90;;;;;;5041553;28;20202;-80
2021/09/24 06:53:26;;;;;;;33.00;21.10;;;15.60;99.90;;;;;;5042738;28;20568;-80
2021/09/24 06:55:51;;;;;;;26.00;20.63;;;15.60;99.90;;;;;;5057692;28;20337;-80
2021/09/24 06:58:17;;;;;;;31.23;20.73;;;15.60;99.90;;;;;;5059253;28;20294;-79
2021/09/24 07:00:42;;;;;;;28.77;20.70;;;15.60;99.90;;;;;;5059198;28;20173;-80
2021/09/24 07:03:10;;;;;;;30.80;21.57;;;15.70;99.90;;;;;;5041605;28;20193;-79
2021/09/24 07:05:36;;;;;;;30.67;21.60;;;15.70;99.90;;;;;;5042508;28;20235;-80
2021/09/24 07:08:02;;;;;;;35.17;22.33;;;15.70;99.90;;;;;;5041180;28;20177;-78
2021/09/24 07:10:29;;;;;;;33.47;22.37;;;15.70;99.90;;;;;;5053926;28;20186;-78
2021/09/24 07:12:55;;;;;;;30.40;23.70;;;15.70;99.90;;;;;;5038874;28;20274;-78
2021/09/24 07:15:21;;;;;;;35.27;23.37;;;15.80;99.90;;;;;;5053421;28;20204;-78
2021/09/24 07:17:47;;;;;;;34.73;24.43;;;15.80;99.90;;;;;;5062463;28;20256;-78
2021/09/24 07:20:13;;;;;;;36.97;25.47;;;15.80;99.90;;;;;;5073522;28;20644;-78
2021/09/24 07:22:38;;;;;;;33.80;25.27;;;15.80;99.90;;;;;;5039999;28;20265;-79
2021/09/24 07:25:05;;;;;;;33.83;25.07;;;15.90;99.90;;;;;;5058467;28;20546;-80
2021/09/24 07:27:31;;;;;;;39.10;27.50;;;15.90;99.90;;;;;;5055484;28;20552;-79
2021/09/24 07:29:58;;;;;;;38.67;26.10;;;15.90;99.90;;;;;;5040826;28;20184;-79
2021/09/24 07:32:23;;;;;;;38.27;28.10;;;16.00;99.90;;;;;;5058718;28;20787;-79
2021/09/24 07:34:49;;;;;;;37.90;27.63;;;16.00;99.90;;;;;;5058265;28;20503;-79
2021/09/24 07:37:14;;;;;;;40.97;27.80;;;16.10;99.90;;;;;;5041359;28;20176;-80
2021/09/24 07:39:40;;;;;;;43.03;28.93;;;16.10;99.90;;;;;;5036451;28;20265;-80
2021/09/24 07:42:06;;;;;;;37.30;28.47;;;16.20;99.90;;;;;;5054099;28;20237;-79
2021/09/24 07:44:33;;;;;;;42.07;29.63;;;16.20;99.90;;;;;;5040924;28;20625;-80
2021/09/24 07:46:58;;;;;;;40.47;28.40;;;16.30;99.90;;;;;;5042071;28;20187;-79
2021/09/24 07:49:24;;;;;;;43.97;30.07;;;16.30;99.90;;;;;;5041726;28;20264;-79
2021/09/24 07:51:50;;;;;;;43.03;29.57;;;16.30;99.90;;;;;;5058180;28;20185;-80
2021/09/24 07:54:15;;;;;;;39.73;28.67;;;16.30;99.90;;;;;;5057662;28;20193;-80
2021/09/24 07:56:41;;;;;;;41.20;28.37;;;16.30;99.90;;;;;;5058167;28;20640;-79
2021/09/24 07:59:07;;;;;;;44.10;30.57;;;16.30;99.90;;;;;;5058593;28;20205;-80
2021/09/24 08:01:33;;;;;;;47.63;31.17;;;16.30;99.90;;;;;;5058171;28;20166;-80
2021/09/24 08:04:01;;;;;;;46.73;31.77;;;16.30;99.90;;;;;;5058023;28;20193;-80
2021/09/24 08:06:27;;;;;;;47.93;32.40;;;16.20;99.90;;;;;;5030851;28;20324;-79
2021/09/24 08:08:53;;;;;;;47.67;32.47;;;16.20;99.90;;;;;;5058046;28;20600;-82
2021/09/24 08:11:19;;;;;;;45.03;31.07;;;16.20;99.90;;;;;;5056572;28;20193;-82
2021/09/24 08:13:45;;;;;;;53.67;32.90;;;16.20;99.90;;;;;;5039350;28;20193;-82
2021/09/24 08:16:11;;;;;;;56.13;33.73;;;16.30;99.90;;;;;;5057764;28;20546;-79
2021/09/24 08:18:37;;;;;;;57.13;33.27;;;16.20;99.90;;;;;;5040235;28;20170;-80
2021/09/24 08:21:04;;;;;;;59.80;34.63;;;16.30;99.90;;;;;;5044160;28;20183;-79
2021/09/24 08:23:29;;;;;;;61.80;34.03;;;16.20;99.90;;;;;;5038731;28;20230;-79
2021/09/24 08:25:55;;;;;;;60.83;35.10;;;16.20;99.90;;;;;;5061027;28;20173;-78
2021/09/24 08:28:22;;;;;;;65.90;35.87;;;16.20;99.90;;;;;;5072057;28;20185;-79
2021/09/24 08:30:47;;;;;;;59.20;34.87;;;16.20;99.90;;;;;;5037930;28;20185;-78
2021/09/24 08:33:14;;;;;;;66.07;35.30;;;16.20;99.90;;;;;;5054794;28;20294;-79
2021/09/24 08:35:43;;;;;;;63.17;33.53;;;16.20;99.90;;;;;;5072411;28;20195;-79
2021/09/24 08:38:09;;;;;;;67.17;33.73;;;16.20;99.90;;;;;;5037838;28;20177;-78
2021/09/24 08:40:37;;;;;;;64.73;32.83;;;16.20;99.90;;;;;;5031549;28;20380;-79
2021/09/24 08:43:03;;;;;;;66.13;34.60;;;16.20;99.90;;;;;;5036562;28;20194;-78
2021/09/24 08:45:30;;;;;;;62.50;33.50;;;16.20;99.90;;;;;;5036882;28;20171;-79
2021/09/24 08:47:58;;;;;;;65.03;33.50;;;16.20;99.90;;;;;;5044104;28;20209;-79
2021/09/24 08:50:24;;;;;;;63.30;32.30;;;16.20;99.90;;;;;;5072350;28;20658;-79
2021/09/24 08:52:50;;;;;;;62.40;33.80;;;16.20;99.90;;;;;;5054228;28;20607;-78
2021/09/24 08:55:15;;;;;;;64.80;32.67;;;16.20;99.90;;;;;;5058217;28;20197;-78
2021/09/24 08:57:42;;;;;;;56.97;30.13;;;16.20;99.90;;;;;;5042450;28;20300;-79
2021/09/24 09:00:08;;;;;;;58.07;31.03;;;16.30;99.90;;;;;;5059376;28;20272;-79
2021/09/24 09:02:54;;;;;;;61.40;31.43;;;16.20;99.90;;;;;;5058919;28;20166;-79
2021/09/24 09:05:19;;;;;;;51.60;28.37;;;16.30;99.90;;;;;;5077759;28;20188;-80
2021/09/24 09:07:45;;;;;;;56.07;29.27;;;16.30;99.90;;;;;;5050137;28;20181;-78
2021/09/24 09:10:11;;;;;;;50.37;28.23;;;16.30;99.90;;;;;;5066050;28;20588;-79
2021/09/24 09:12:37;;;;;;;48.20;28.23;;;16.40;99.90;;;;;;5065583;28;20211;-79
2021/09/24 09:15:13;;;;;;;51.67;28.50;;;16.40;99.90;;;;;;5081292;28;20275;-79
2021/09/24 09:17:43;;;;;;;50.83;28.93;;;16.40;99.90;;;;;;5061719;28;20182;-79
2021/09/24 09:20:29;;;;;;;49.27;27.93;;;16.40;99.90;;;;;;5071819;28;20278;-79
2021/09/24 09:22:58;;;;;;;47.60;26.90;;;16.40;99.90;;;;;;5061486;28;20210;-79
2021/09/24 09:25:28;;;;;;;42.77;26.17;;;16.30;99.90;;;;;;5062915;28;20277;-79
2021/09/24 09:27:54;;;;;;;39.63;25.33;;;16.40;99.90;;;;;;5062282;28;20621;-79
2021/09/24 09:30:20;;;;;;;42.27;24.27;;;16.30;99.90;;;;;;5065405;28;20718;-79
2021/09/24 09:33:17;;;;;;;40.40;24.77;;;16.40;99.90;;;;;;5065301;28;20271;-79
2021/09/24 09:35:47;;;;;;;37.53;23.73;;;16.30;99.90;;;;;;5065958;28;20208;-78
2021/09/24 09:38:26;;;;;;;39.40;24.20;;;16.30;99.90;;;;;;5065405;28;20186;-78
2021/09/24 09:41:00;;;;;;;33.00;22.87;;;16.30;99.90;;;;;;5081037;28;20177;-79
2021/09/24 09:43:32;;;;;;;37.87;24.73;;;16.40;99.90;;;;;;5064419;28;20217;-80
2021/09/24 09:45:59;;;;;;;38.90;23.97;;;16.50;99.90;;;;;;5080664;28;20174;-79
2021/09/24 09:48:25;;;;;;;39.93;23.97;;;16.50;99.90;;;;;;5047243;28;20181;-84
2021/09/24 09:50:51;;;;;;;34.77;22.50;;;16.50;99.90;;;;;;5062811;28;20185;-82
2021/09/24 09:53:17;;;;;;;34.90;22.90;;;16.60;99.90;;;;;;5042031;28;20224;-80
2021/09/24 09:56:05;;;;;;;33.57;23.13;;;16.60;99.90;;;;;;5043702;28;20195;-80
2021/09/24 09:58:33;;;;;;;35.67;22.77;;;16.60;99.90;;;;;;5045718;28;20227;-80
2021/09/24 10:01:03;;;;;;;30.23;21.40;;;16.60;99.90;;;;;;5043345;28;20163;-81
2021/09/24 10:03:39;;;;;;;32.27;20.67;;;16.50;99.90;;;;;;5044218;28;20194;-81
2021/09/24 10:06:19;;;;;;;32.57;21.87;;;16.50;99.90;;;;;;5043639;28;20170;-79
2021/09/24 10:08:45;;;;;;;35.87;23.40;;;16.50;99.90;;;;;;5060748;28;20170;-80
2021/09/24 10:11:13;;;;;;;35.37;22.50;;;16.60;99.90;;;;;;5043692;28;20219;-81
2021/09/24 10:13:49;;;;;;;33.83;22.67;;;16.60;99.90;;;;;;5037056;28;20204;-81
2021/09/24 10:16:15;;;;;;;34.13;23.73;;;16.60;99.90;;;;;;5059805;28;20263;-80
2021/09/24 10:18:40;;;;;;;38.60;23.67;;;16.50;99.90;;;;;;5045558;28;20182;-80
2021/09/24 10:21:08;;;;;;;36.40;23.73;;;16.50;99.90;;;;;;5034300;28;20191;-79
2021/09/24 10:23:33;;;;;;;34.70;22.10;;;16.40;99.90;;;;;;5070459;28;20208;-80
2021/09/24 10:26:02;;;;;;;37.70;23.63;;;16.40;99.90;;;;;;5064848;28;20173;-80
2021/09/24 10:28:30;;;;;;;34.70;22.27;;;16.50;99.90;;;;;;5062378;28;20173;-80
2021/09/24 10:30:56;;;;;;;33.70;21.50;;;16.40;99.90;;;;;;5034245;28;20170;-78
2021/09/24 10:33:23;;;;;;;30.47;20.53;;;16.40;99.90;;;;;;5041049;28;20282;-79
2021/09/24 10:35:54;;;;;;;32.43;20.23;;;16.40;99.90;;;;;;5038195;28;20221;-79
2021/09/24 10:38:24;;;;;;;31.27;19.63;;;16.40;99.90;;;;;;5055057;28;20268;-79
2021/09/24 10:41:04;;;;;;;26.70;18.47;;;16.30;99.90;;;;;;5030623;28;20186;-81
2021/09/24 10:43:43;;;;;;;25.77;18.20;;;16.40;99.90;;;;;;5025895;28;20260;-80
2021/09/24 10:46:25;;;;;;;27.23;17.90;;;16.50;99.90;;;;;;5041011;28;20662;-81
2021/09/24 10:49:18;;;;;;;25.00;17.03;;;16.50;99.90;;;;;;5059311;28;20213;-81
2021/09/24 10:51:45;;;;;;;26.73;17.57;;;16.50;99.90;;;;;;5060283;28;20565;-80
2021/09/24 10:54:20;;;;;;;25.90;18.03;;;16.70;99.90;;;;;;5060695;28;20251;-82
2021/09/24 10:57:03;;;;;;;30.83;18.60;;;16.70;99.90;;;;;;5061049;28;20168;-82
2021/09/24 10:59:30;;;;;;;28.90;19.20;;;16.70;99.90;;;;;;5061872;28;20187;-79
2021/09/24 11:01:56;;;;;;;25.50;18.87;;;16.80;99.90;;;;;;5063748;28;20235;-80
2021/09/24 11:04:40;;;;;;;26.17;19.53;;;16.80;99.90;;;;;;5046485;28;20205;-80
2021/09/24 11:07:06;;;;;;;25.97;19.43;;;16.80;99.90;;;;;;5063636;28;20268;-79
2021/09/24 11:09:32;;;;;;;28.00;19.63;;;16.80;99.90;;;;;;5063253;28;20216;-80
2021/09/24 11:12:03;;;;;;;24.27;18.70;;;16.90;99.90;;;;;;5048634;28;20190;-80
2021/09/24 11:14:37;;;;;;;28.10;19.43;;;16.90;99.90;;;;;;5050305;28;20700;-80
2021/09/24 11:17:05;;;;;;;23.40;18.40;;;16.90;99.90;;;;;;5050805;28;20173;-80
2021/09/24 11:19:30;;;;;;;25.23;18.77;;;17.00;99.90;;;;;;5047427;28;20636;-80
2021/09/24 11:21:59;;;;;;;24.57;18.90;;;17.00;99.90;;;;;;5083341;28;20203;-79
2021/09/24 11:24:29;;;;;;;24.90;19.13;;;17.00;99.90;;;;;;5081375;28;20240;-79
2021/09/24 11:26:56;;;;;;;26.43;20.43;;;17.00;99.90;;;;;;5065422;28;20285;-80
2021/09/24 11:29:28;;;;;;;28.87;21.13;;;17.00;99.90;;;;;;5047227;28;20189;-79
2021/09/24 11:32:00;;;;;;;27.70;21.17;;;17.10;99.90;;;;;;5061770;28;20189;-80
2021/09/24 11:34:44;;;;;;;30.90;23.40;;;17.10;99.90;;;;;;5078761;28;20212;-79
2021/09/24 11:37:16;;;;;;;28.73;21.33;;;17.20;99.90;;;;;;5078080;28;20203;-79
2021/09/24 11:39:41;;;;;;;32.67;25.00;;;17.20;99.90;;;;;;5059869;28;20224;-79
2021/09/24 11:42:09;;;;;;;35.37;25.93;;;17.20;99.90;;;;;;5042188;28;20184;-80
2021/09/24 11:44:45;;;;;;;34.20;26.03;;;17.30;99.90;;;;;;5045077;28;20202;-80
2021/09/24 11:47:19;;;;;;;35.47;26.90;;;17.30;99.90;;;;;;5038800;28;20668;-79
2021/09/24 11:50:04;;;;;;;38.07;28.63;;;17.30;99.90;;;;;;5060049;28;20177;-80
2021/09/24 11:52:41;;;;;;;40.00;29.67;;;17.30;99.90;;;;;;5039788;28;20646;-81
2021/09/24 11:55:30;;;;;;;35.70;26.23;;;17.40;99.90;;;;;;5058122;28;20675;-80
2021/09/24 11:58:10;;;;;;;38.63;28.10;;;17.40;99.90;;;;;;5077588;28;20189;-80
2021/09/24 12:00:45;;;;;;;36.83;26.67;;;17.30;99.90;;;;;;5059208;28;20241;-80
2021/09/24 12:03:28;;;;;;;35.77;26.37;;;17.20;99.90;;;;;;5075587;28;20189;-80
2021/09/24 12:05:57;;;;;;;36.80;26.43;;;17.20;99.90;;;;;;5059069;28;20184;-79
2021/09/24 12:08:30;;;;;;;35.63;25.50;;;17.30;99.90;;;;;;5076680;28;20208;-80
2021/09/24 12:10:58;;;;;;;36.70;27.63;;;17.30;99.90;;;;;;5059621;28;20161;-80
2021/09/24 12:13:29;;;;;;;36.93;26.63;;;17.40;99.90;;;;;;5058507;28;20227;-80
2021/09/24 12:15:57;;;;;;;38.27;29.03;;;17.50;99.90;;;;;;5034265;28;20205;-80
2021/09/24 12:18:24;;;;;;;37.73;28.10;;;17.70;99.90;;;;;;5052489;28;20238;-80
2021/09/24 12:21:00;;;;;;;37.97;27.50;;;17.80;99.90;;;;;;5059429;28;20204;-80
2021/09/24 12:23:27;;;;;;;37.63;27.33;;;18.00;99.90;;;;;;5057391;28;20348;-82
2021/09/24 12:26:00;;;;;;;38.83;27.93;;;18.10;99.90;;;;;;5059626;28;20173;-80
2021/09/24 12:28:26;;;;;;;37.57;29.03;;;18.10;99.90;;;;;;5045189;28;20230;-81
2021/09/24 12:30:52;;;;;;;35.37;28.63;;;18.10;99.90;;;;;;5074437;28;20184;-79
2021/09/24 12:33:21;;;;;;;41.83;32.33;;;18.20;99.90;;;;;;5074618;22;20390;-81